createdAt,value
2022-09-09T00:02:01.940Z,14.77
2022-09-09T00:04:40.542Z,13.15
2022-09-09T00:07:51.875Z,10.90
2022-09-09T00:10:29.752Z,10.88
2022-09-09T00:13:17.058Z,13.30
2022-09-09T00:16:08.367Z,14.00
2022-09-09T00:18:56.337Z,14.77
2022-09-09T00:22:02.594Z,10.87
2022-09-09T00:24:43.176Z,15.47
2022-09-09T00:27:46.412Z,11.90
2022-09-09T00:30:23.290Z,11.27
2022-09-09T00:32:59.263Z,11.20
2022-09-09T00:35:45.684Z,12.80
2022-09-09T00:38:19.243Z,10.47
2022-09-09T00:41:03.088Z,12.40
2022-09-09T00:43:34.387Z,11.32
2022-09-09T00:46:25.843Z,12.10
2022-09-09T00:49:32.998Z,9.37
2022-09-09T00:52:39.576Z,13.77
2022-09-09T00:55:41.506Z,11.30
2022-09-09T00:58:10.391Z,15.25
2022-09-09T01:00:51.288Z,12.33
2022-09-09T01:03:32.509Z,13.88
2022-09-09T01:06:34.255Z,14.02
2022-09-09T01:09:25.267Z,11.18
2022-09-09T01:12:26.219Z,10.98
2022-09-09T01:15:04.305Z,13.30
2022-09-09T01:17:46.027Z,17.73
2022-09-09T01:20:20.332Z,15.00
2022-09-09T01:23:14.933Z,16.53
2022-09-09T01:26:40.616Z,15.10
2022-09-09T01:29:14.457Z,12.07
2022-09-09T01:32:04.489Z,15.40
2022-09-09T01:34:41.409Z,14.60
2022-09-09T01:37:14.224Z,11.07
2022-09-09T01:39:45.692Z,12.10
2022-09-09T01:42:17.170Z,10.93
2022-09-09T01:44:44.166Z,11.53
2022-09-09T01:47:11.185Z,14.23
2022-09-09T01:49:38.131Z,20.83
2022-09-09T01:52:05.274Z,14.73
2022-09-09T01:54:34.380Z,13.37
2022-09-09T01:57:29.658Z,11.20
2022-09-09T02:00:08.740Z,11.60
2022-09-09T02:02:57.447Z,15.87
2022-09-09T02:05:56.338Z,12.20
2022-09-09T02:08:34.251Z,15.57
2022-09-09T02:11:24.436Z,13.17
2022-09-09T02:13:59.842Z,13.37
2022-09-09T02:16:37.302Z,13.23
2022-09-09T02:19:14.908Z,15.67
2022-09-09T02:21:46.304Z,14.23
2022-09-09T02:24:16.870Z,12.67
2022-09-09T02:26:48.684Z,15.77
2022-09-09T02:29:35.309Z,16.67
2022-09-09T02:32:07.594Z,14.80
2022-09-09T02:34:43.274Z,15.70
2022-09-09T02:37:11.920Z,13.47
2022-09-09T02:39:39.078Z,17.50
2022-09-09T02:42:06.845Z,17.33
2022-09-09T02:44:33.828Z,14.90
2022-09-09T02:47:27.041Z,15.57
2022-09-09T02:50:17.972Z,12.30
2022-09-09T02:53:16.019Z,14.15
2022-09-09T02:55:56.534Z,16.42
2022-09-09T02:58:24.141Z,12.17
2022-09-09T03:00:52.647Z,18.70
2022-09-09T03:03:21.368Z,12.87
2022-09-09T03:05:48.683Z,14.57
2022-09-09T03:08:15.835Z,14.73
2022-09-09T03:10:42.932Z,16.70
2022-09-09T03:13:10.189Z,13.67
2022-09-09T03:15:37.179Z,17.63
2022-09-09T03:18:04.216Z,15.43
2022-09-09T03:20:32.076Z,13.67
2022-09-09T03:23:01.268Z,16.37
2022-09-09T03:25:29.657Z,15.45
2022-09-09T03:27:57.384Z,13.97
2022-09-09T03:30:28.974Z,11.67
2022-09-09T03:32:56.390Z,18.88
2022-09-09T03:35:23.589Z,17.43
2022-09-09T03:37:50.655Z,18.25
2022-09-09T03:40:17.709Z,14.87
2022-09-09T03:42:44.726Z,15.40
2022-09-09T03:45:12.228Z,13.83
2022-09-09T03:47:39.397Z,12.90
2022-09-09T03:50:10.589Z,11.17
2022-09-09T03:52:42.067Z,15.83
2022-09-09T03:55:10.130Z,14.43
2022-09-09T03:57:38.214Z,12.63
2022-09-09T04:00:07.890Z,12.67
2022-09-09T04:02:35.100Z,14.20
2022-09-09T04:05:02.130Z,11.20
2022-09-09T04:07:29.203Z,12.03
2022-09-09T04:09:56.386Z,11.40
2022-09-09T04:12:23.483Z,9.57
2022-09-09T04:14:50.429Z,12.05
2022-09-09T04:17:18.397Z,9.60
2022-09-09T04:19:45.365Z,10.50
2022-09-09T04:22:12.331Z,9.50
2022-09-09T04:24:39.381Z,9.17
2022-09-09T04:27:06.334Z,10.07
2022-09-09T04:29:33.353Z,8.07
2022-09-09T04:32:00.333Z,10.55
2022-09-09T04:34:27.391Z,10.07
2022-09-09T04:36:54.320Z,7.83
2022-09-09T04:39:21.238Z,8.55
2022-09-09T04:41:48.298Z,9.57
2022-09-09T04:44:15.428Z,10.10
2022-09-09T04:46:42.550Z,7.50
2022-09-09T04:49:14.455Z,10.50
2022-09-09T04:51:42.108Z,8.00
2022-09-09T04:54:09.029Z,7.72
2022-09-09T04:56:37.335Z,10.03
2022-09-09T04:59:04.352Z,7.65
2022-09-09T05:01:31.480Z,6.27
2022-09-09T05:03:58.837Z,7.00
2022-09-09T05:06:26.001Z,7.28
2022-09-09T05:08:53.468Z,9.98
2022-09-09T05:11:27.938Z,7.83
2022-09-09T05:13:55.676Z,9.90
2022-09-09T05:16:24.437Z,7.87
2022-09-09T05:18:52.308Z,8.25
2022-09-09T05:21:22.375Z,9.80
2022-09-09T05:23:49.818Z,6.22
2022-09-09T05:26:20.485Z,7.57
2022-09-09T05:28:48.021Z,9.32
2022-09-09T05:31:17.996Z,6.68
2022-09-09T05:33:47.440Z,6.38
2022-09-09T05:36:20.821Z,7.15
2022-09-09T05:38:48.600Z,6.93
2022-09-09T05:41:18.639Z,7.13
2022-09-09T05:43:46.635Z,8.67
2022-09-09T05:46:18.871Z,5.72
2022-09-09T05:48:48.383Z,7.00
2022-09-09T05:51:22.812Z,8.70
2022-09-09T05:53:50.096Z,8.27
2022-09-09T05:56:19.326Z,5.35
2022-09-09T05:58:50.233Z,6.30
2022-09-09T06:01:24.942Z,7.38
2022-09-09T06:03:53.270Z,6.50
2022-09-09T06:06:29.702Z,6.07
2022-09-09T06:08:59.147Z,5.85
2022-09-09T06:11:33.644Z,4.72
2022-09-09T06:14:01.304Z,5.13
2022-09-09T06:16:30.483Z,6.43
2022-09-09T06:18:58.902Z,6.10
2022-09-09T06:21:35.527Z,7.05
2022-09-09T06:24:03.394Z,5.80
2022-09-09T06:26:43.654Z,7.97
2022-09-09T06:29:11.305Z,6.22
2022-09-09T06:31:39.655Z,5.80
2022-09-09T06:34:09.321Z,7.03
2022-09-09T06:36:39.324Z,8.38
2022-09-09T06:39:12.145Z,9.82
2022-09-09T06:41:42.061Z,5.05
2022-09-09T06:44:09.168Z,5.93
2022-09-09T06:46:36.793Z,6.28
2022-09-09T06:49:04.230Z,11.45
2022-09-09T06:51:37.661Z,10.57
2022-09-09T06:54:05.407Z,11.20
2022-09-09T06:56:38.111Z,7.15
2022-09-09T06:59:07.095Z,8.65
2022-09-09T07:01:37.199Z,9.50
2022-09-09T07:04:08.532Z,9.48
2022-09-09T07:06:47.309Z,8.00
2022-09-09T07:09:17.294Z,7.78
2022-09-09T07:11:50.315Z,8.30
2022-09-09T07:14:17.900Z,7.75
2022-09-09T07:16:46.511Z,8.45
2022-09-09T07:19:15.457Z,8.60
2022-09-09T07:21:43.283Z,7.88
2022-09-09T07:24:11.717Z,7.80
2022-09-09T07:26:40.705Z,10.80
2022-09-09T07:29:09.105Z,8.88
2022-09-09T07:31:38.945Z,10.55
2022-09-09T07:34:06.585Z,10.30
2022-09-09T07:36:40.154Z,9.38
2022-09-09T07:39:14.143Z,8.60
2022-09-09T07:41:47.646Z,8.30
2022-09-09T07:44:25.960Z,7.70
2022-09-09T07:46:53.108Z,10.02
2022-09-09T07:49:27.411Z,11.57
2022-09-09T07:51:56.774Z,9.68
2022-09-09T07:54:24.710Z,10.70
2022-09-09T07:56:53.108Z,10.27
2022-09-09T07:59:20.812Z,11.38
2022-09-09T08:01:54.531Z,8.68
2022-09-09T08:04:23.420Z,12.27
2022-09-09T08:07:02.145Z,11.82
2022-09-09T08:09:30.107Z,9.88
2022-09-09T08:11:58.212Z,11.25
2022-09-09T08:14:25.961Z,11.82
2022-09-09T08:16:55.276Z,11.80
2022-09-09T08:19:22.346Z,10.25
2022-09-09T08:21:50.137Z,10.32
2022-09-09T08:24:17.913Z,13.63
2022-09-09T08:26:50.347Z,12.88
2022-09-09T08:29:21.182Z,9.93
2022-09-09T08:31:52.279Z,11.88
2022-09-09T08:34:22.193Z,13.40
2022-09-09T08:36:51.463Z,14.85
2022-09-09T08:39:21.514Z,10.65
2022-09-09T08:42:01.665Z,12.48
2022-09-09T08:45:13.089Z,14.68
2022-09-09T08:48:01.054Z,14.38
2022-09-09T08:50:36.511Z,16.52
2022-09-09T08:53:34.908Z,12.50
2022-09-09T08:56:12.654Z,14.45
2022-09-09T08:58:49.988Z,16.17
2022-09-09T09:01:32.770Z,14.20
2022-09-09T09:04:45.175Z,17.13
2022-09-09T09:07:38.231Z,14.57
2022-09-09T09:10:42.029Z,19.50
2022-09-09T09:13:44.070Z,16.92
2022-09-09T09:16:44.762Z,19.42
2022-09-09T09:19:17.384Z,19.95
2022-09-09T09:21:51.547Z,20.58
2022-09-09T09:24:26.998Z,19.45
2022-09-09T09:26:54.998Z,19.10
2022-09-09T09:29:25.306Z,19.23
2022-09-09T09:31:56.563Z,24.58
2022-09-09T09:34:25.390Z,16.08
2022-09-09T09:36:58.201Z,19.75
2022-09-09T09:42:21.796Z,23.52
2022-09-09T09:44:50.700Z,20.83
2022-09-09T09:47:28.024Z,20.23
2022-09-09T09:50:03.579Z,21.80
2022-09-09T09:52:33.258Z,19.85
2022-09-09T09:55:07.542Z,21.77
2022-09-09T09:57:35.541Z,20.70
2022-09-09T10:00:17.720Z,19.05
2022-09-09T10:02:46.964Z,20.02
2022-09-09T10:05:26.831Z,19.55
2022-09-09T10:08:17.656Z,26.38
2022-09-09T10:11:34.094Z,21.90
2022-09-09T10:14:34.236Z,19.42
2022-09-09T10:17:14.330Z,20.23
2022-09-09T10:20:00.017Z,24.10
2022-09-09T10:22:33.094Z,26.88
2022-09-09T10:26:14.706Z,23.20
2022-09-09T10:29:33.948Z,19.73
2022-09-09T10:32:46.292Z,22.02
2022-09-09T10:35:34.328Z,22.58
2022-09-09T10:38:29.793Z,19.70
2022-09-09T10:40:57.632Z,24.00
2022-09-09T10:44:00.601Z,29.73
2022-09-09T10:46:56.962Z,30.75
2022-09-09T10:50:01.692Z,24.33
2022-09-09T10:52:52.049Z,25.75
2022-09-09T10:55:29.902Z,23.98
2022-09-09T10:58:00.095Z,26.98
2022-09-09T11:00:44.932Z,25.02
2022-09-09T11:03:27.972Z,23.70
2022-09-09T11:06:14.466Z,29.35
2022-09-09T11:08:42.009Z,36.50
2022-09-09T11:11:30.332Z,26.10
2022-09-09T11:14:20.927Z,28.85
2022-09-09T11:16:58.072Z,26.08
2022-09-09T11:19:42.467Z,23.63
2022-09-09T11:22:37.623Z,26.15
2022-09-09T11:26:04.675Z,27.95
2022-09-09T11:28:59.519Z,29.23
2022-09-09T11:31:49.547Z,31.20
2022-09-09T11:34:52.955Z,33.17
2022-09-09T11:37:47.014Z,33.00
2022-09-09T11:40:28.974Z,34.05
2022-09-09T11:43:28.069Z,35.13
2022-09-09T11:46:01.181Z,37.58
2022-09-09T11:48:39.397Z,32.38
2022-09-09T11:51:17.125Z,32.72
2022-09-09T11:54:02.400Z,33.42
2022-09-09T11:56:45.089Z,34.45
2022-09-09T11:59:33.166Z,37.65
2022-09-09T12:02:19.805Z,33.90
2022-09-09T12:05:11.043Z,35.30
2022-09-09T12:07:59.732Z,31.13
2022-09-09T12:10:30.063Z,34.90
2022-09-09T12:13:08.259Z,36.13
2022-09-09T12:15:35.773Z,39.53
2022-09-09T12:18:03.833Z,38.00
2022-09-09T12:20:39.989Z,52.90
2022-09-09T12:23:15.209Z,38.38
2022-09-09T12:26:16.728Z,41.15
2022-09-09T12:29:19.815Z,42.58
2022-09-09T12:32:12.490Z,38.15
2022-09-09T12:35:21.267Z,34.95
2022-09-09T12:38:01.165Z,37.33
2022-09-09T12:40:36.515Z,38.80
2022-09-09T12:43:22.198Z,45.83
2022-09-09T12:45:57.681Z,41.95
2022-09-09T12:48:54.939Z,39.92
2022-09-09T12:51:32.089Z,44.67
2022-09-09T12:54:00.910Z,37.65
2022-09-09T12:56:32.478Z,39.70
2022-09-09T12:59:01.904Z,43.58
2022-09-09T13:01:33.616Z,43.92
2022-09-09T13:04:01.547Z,40.10
2022-09-09T13:06:34.245Z,42.97
2022-09-09T13:09:03.263Z,40.78
2022-09-09T13:11:59.751Z,38.70
2022-09-09T13:14:38.378Z,47.80
2022-09-09T13:17:07.830Z,41.70
2022-09-09T13:19:38.902Z,44.13
2022-09-09T13:22:28.557Z,42.13
2022-09-09T13:25:29.781Z,46.33
2022-09-09T13:28:03.503Z,48.95
2022-09-09T13:30:41.374Z,40.17
2022-09-09T13:33:13.974Z,45.33
2022-09-09T13:36:00.153Z,51.00
2022-09-09T13:38:30.097Z,43.78
2022-09-09T13:41:04.283Z,46.25
2022-09-09T13:43:46.388Z,52.40
2022-09-09T13:46:31.217Z,44.72
2022-09-09T13:49:00.807Z,47.75
2022-09-09T13:51:46.477Z,47.28
2022-09-09T13:54:17.123Z,44.25
2022-09-09T13:56:45.287Z,47.58
2022-09-09T13:59:30.734Z,43.42
2022-09-09T14:02:09.685Z,47.05
2022-09-09T14:04:36.688Z,49.85
2022-09-09T14:07:04.379Z,48.20
2022-09-09T14:09:31.301Z,49.30
2022-09-09T14:11:58.708Z,44.33
2022-09-09T14:14:26.803Z,46.17
2022-09-09T14:16:53.719Z,46.40
2022-09-09T14:19:21.002Z,44.55
2022-09-09T14:21:48.048Z,43.75
2022-09-09T14:24:15.151Z,47.25
2022-09-09T14:26:42.080Z,41.30
2022-09-09T14:29:09.048Z,46.92
2022-09-09T14:31:36.013Z,47.40
2022-09-09T14:34:02.978Z,43.58
2022-09-09T14:36:30.175Z,39.78
2022-09-09T14:38:57.163Z,41.00
2022-09-09T14:41:24.551Z,42.83
2022-09-09T14:43:52.949Z,47.78
2022-09-09T14:46:21.843Z,50.75
2022-09-09T14:51:26.006Z,42.85
2022-09-09T14:53:55.891Z,43.60
2022-09-09T14:56:30.610Z,42.10
2022-09-09T14:59:01.850Z,44.50
2022-09-09T15:01:30.757Z,47.78
2022-09-09T15:04:04.611Z,44.63
2022-09-09T15:06:36.841Z,42.63
2022-09-09T15:09:04.455Z,45.88
2022-09-09T15:11:38.764Z,43.38
2022-09-09T15:14:08.452Z,39.72
2022-09-09T15:16:36.416Z,41.22
2022-09-09T15:19:04.156Z,43.70
2022-09-09T15:21:36.930Z,39.70
2022-09-09T15:24:05.412Z,35.95
2022-09-09T15:26:32.862Z,44.38
2022-09-09T15:29:00.464Z,38.35
2022-09-09T15:31:32.851Z,42.45
2022-09-09T15:34:02.815Z,43.15
2022-09-09T15:36:33.401Z,44.58
2022-09-09T15:39:02.247Z,38.78
2022-09-09T15:41:30.406Z,40.97
2022-09-09T15:43:58.709Z,43.15
2022-09-09T15:46:28.097Z,44.58
2022-09-09T15:48:58.660Z,40.25
2022-09-09T15:51:44.018Z,39.13
2022-09-09T15:54:20.878Z,44.13
2022-09-09T15:56:55.818Z,41.97
2022-09-09T15:59:24.530Z,40.63
2022-09-09T16:01:54.508Z,44.97
2022-09-09T16:04:26.428Z,42.85
2022-09-09T16:07:05.605Z,46.25
2022-09-09T16:09:33.851Z,40.33
2022-09-09T16:12:03.440Z,45.88
2022-09-09T16:14:35.165Z,43.72
2022-09-09T16:17:03.017Z,48.15
2022-09-09T16:19:32.179Z,44.60
2022-09-09T16:21:59.390Z,39.58
2022-09-09T16:24:26.740Z,42.75
2022-09-09T16:26:55.926Z,45.33
2022-09-09T16:29:23.999Z,44.28
2022-09-09T16:31:51.663Z,40.40
2022-09-09T16:34:19.798Z,44.17
2022-09-09T16:36:49.452Z,45.60
2022-09-09T16:39:19.625Z,41.95
2022-09-09T16:41:49.317Z,40.53
2022-09-09T16:44:19.797Z,39.97
2022-09-09T16:46:49.779Z,39.58
2022-09-09T16:49:17.477Z,35.35
2022-09-09T16:51:54.116Z,40.80
2022-09-09T16:54:24.434Z,37.97
2022-09-09T16:56:52.115Z,46.80
2022-09-09T16:59:22.253Z,37.80
2022-09-09T17:01:52.654Z,38.65
2022-09-09T17:04:27.334Z,39.05
2022-09-09T17:06:56.936Z,31.95
2022-09-09T17:09:28.485Z,36.65
2022-09-09T17:11:55.826Z,33.80
2022-09-09T17:14:24.817Z,41.00
2022-09-09T17:16:52.084Z,37.35
2022-09-09T17:19:19.237Z,34.92
2022-09-09T17:22:15.661Z,37.70
2022-09-09T17:24:35.566Z,33.30
2022-09-09T17:27:03.383Z,33.35
2022-09-09T17:29:30.452Z,29.90
2022-09-09T17:31:57.539Z,32.30
2022-09-09T17:34:26.163Z,40.05
2022-09-09T17:36:53.273Z,31.42
2022-09-09T17:39:20.344Z,27.15
2022-09-09T17:41:47.339Z,28.95
2022-09-09T17:44:14.389Z,27.80
2022-09-09T17:46:43.979Z,30.27
2022-09-09T17:49:13.996Z,34.58
2022-09-09T17:51:42.882Z,31.17
2022-09-09T17:54:15.250Z,31.83
2022-09-09T17:56:43.146Z,33.20
2022-09-09T17:59:13.412Z,33.88
2022-09-09T18:01:45.724Z,27.52
2022-09-09T18:04:15.424Z,30.88
2022-09-09T18:06:51.665Z,32.55
2022-09-09T18:09:26.468Z,31.80
2022-09-09T18:11:57.027Z,29.60
2022-09-09T18:14:28.320Z,31.83
2022-09-09T18:16:55.626Z,31.17
2022-09-09T18:19:26.728Z,33.60
2022-09-09T18:21:56.398Z,31.52
2022-09-09T18:24:26.762Z,39.15
2022-09-09T18:26:53.843Z,29.17
2022-09-09T18:29:24.051Z,29.73
2022-09-09T18:31:53.329Z,33.60
2022-09-09T18:34:22.860Z,33.53
2022-09-09T18:36:56.151Z,31.40
2022-09-09T18:39:29.763Z,30.08
2022-09-09T18:42:01.461Z,29.15
2022-09-09T18:44:35.568Z,34.13
2022-09-09T18:47:03.846Z,32.03
2022-09-09T18:49:30.902Z,30.92
2022-09-09T18:51:58.022Z,29.85
2022-09-09T18:54:30.540Z,31.83
2022-09-09T18:57:00.572Z,25.90
2022-09-09T18:59:28.388Z,31.35
2022-09-09T19:01:55.776Z,33.20
2022-09-09T19:04:24.453Z,30.27
2022-09-09T19:06:57.851Z,29.48
2022-09-09T19:09:31.578Z,32.83
2022-09-09T19:12:00.620Z,25.73
2022-09-09T19:14:28.577Z,27.35
2022-09-09T19:16:56.468Z,28.95
2022-09-09T19:19:31.259Z,29.65
2022-09-09T19:21:58.869Z,28.90
2022-09-09T19:24:32.442Z,28.63
2022-09-09T19:27:04.417Z,25.98
2022-09-09T19:29:36.439Z,29.67
2022-09-09T19:32:49.707Z,24.48
2022-09-09T19:34:52.493Z,27.58
2022-09-09T19:37:19.837Z,25.48
2022-09-09T19:39:47.992Z,28.02
2022-09-09T19:42:15.677Z,26.77
2022-09-09T19:44:42.705Z,23.48
2022-09-09T19:47:09.670Z,25.30
2022-09-09T19:49:38.594Z,27.13
2022-09-09T19:52:05.769Z,30.35
2022-09-09T19:54:33.501Z,29.02
2022-09-09T19:57:01.303Z,23.50
2022-09-09T19:59:28.514Z,22.50
2022-09-09T20:01:56.979Z,23.42
2022-09-09T20:04:24.659Z,21.55
2022-09-09T20:06:53.216Z,19.50
2022-09-09T20:09:21.957Z,18.85
2022-09-09T20:11:50.528Z,19.73
2022-09-09T20:14:18.430Z,19.70
2022-09-09T20:16:46.712Z,15.27
2022-09-09T20:19:18.642Z,17.92
2022-09-09T20:21:52.111Z,19.23
2022-09-09T20:24:24.029Z,16.67
2022-09-09T20:26:51.157Z,18.58
2022-09-09T20:29:20.698Z,18.08
2022-09-09T20:31:49.187Z,21.48
2022-09-09T20:34:22.935Z,14.85
2022-09-09T20:36:51.081Z,19.10
2022-09-09T20:39:20.705Z,16.10
2022-09-09T20:41:48.696Z,15.73
2022-09-09T20:44:19.253Z,18.30
2022-09-09T20:46:49.971Z,19.02
2022-09-09T20:49:23.072Z,18.13
2022-09-09T20:51:51.492Z,19.75
2022-09-09T20:54:25.115Z,17.63
2022-09-09T20:56:55.264Z,17.33
2022-09-09T20:59:28.547Z,15.82
2022-09-09T21:01:57.121Z,18.98
2022-09-09T21:04:25.185Z,19.38
2022-09-09T21:06:52.740Z,17.30
2022-09-09T21:09:23.260Z,18.30
2022-09-09T21:11:51.507Z,22.52
2022-09-09T21:14:18.640Z,26.45
2022-09-09T21:16:45.851Z,24.92
2022-09-09T21:19:12.799Z,20.98
2022-09-09T21:21:40.155Z,18.05
2022-09-09T21:24:07.299Z,19.35
2022-09-09T21:26:35.537Z,20.00
2022-09-09T21:29:02.539Z,19.73
2022-09-09T21:31:29.903Z,19.42
2022-09-09T21:33:58.726Z,17.17
2022-09-09T21:36:28.102Z,17.08
2022-09-09T21:38:55.438Z,17.38
2022-09-09T21:41:22.481Z,19.10
2022-09-09T21:43:54.220Z,21.42
2022-09-09T21:46:23.289Z,21.70
2022-09-09T21:48:50.776Z,21.77
2022-09-09T21:51:18.657Z,19.92
2022-09-09T21:53:46.195Z,23.10
2022-09-09T21:56:17.913Z,17.92
2022-09-09T21:58:46.892Z,21.02
2022-09-09T22:01:18.547Z,20.70
2022-09-09T22:03:46.210Z,19.20
2022-09-09T22:06:16.780Z,19.48
2022-09-09T22:08:46.098Z,20.02
2022-09-09T22:11:20.642Z,19.55
2022-09-09T22:13:48.365Z,17.90
2022-09-09T22:16:19.074Z,22.85
2022-09-09T22:18:56.736Z,18.65
2022-09-09T22:21:25.201Z,17.58
2022-09-09T22:23:55.491Z,17.15
2022-09-09T22:26:24.562Z,18.10
2022-09-09T22:28:53.796Z,19.02
2022-09-09T22:31:22.842Z,17.05
2022-09-09T22:33:51.131Z,17.60
2022-09-09T22:36:20.421Z,18.42
2022-09-09T22:38:49.156Z,18.33
2022-09-09T22:41:17.169Z,21.95
2022-09-09T22:43:44.951Z,17.17
2022-09-09T22:46:12.313Z,14.07
2022-09-09T22:48:40.504Z,14.00
2022-09-09T22:51:14.183Z,13.52
2022-09-09T22:53:43.469Z,13.93
2022-09-09T22:56:17.321Z,15.63
2022-09-09T22:58:44.530Z,17.70
2022-09-09T23:01:15.971Z,12.23
2022-09-09T23:03:46.101Z,13.48
2022-09-09T23:06:20.228Z,14.13
2022-09-09T23:08:51.908Z,13.77
2022-09-09T23:11:19.568Z,11.75
2022-09-09T23:13:56.018Z,12.65
2022-09-09T23:16:33.079Z,13.60
2022-09-09T23:19:01.028Z,12.63
2022-09-09T23:21:30.403Z,11.65
2022-09-09T23:23:59.804Z,12.15
2022-09-09T23:26:29.868Z,10.80
2022-09-09T23:28:59.348Z,11.60
2022-09-09T23:31:30.203Z,9.63
2022-09-09T23:33:58.577Z,12.95
2022-09-09T23:36:26.563Z,11.77
2022-09-09T23:38:56.285Z,14.27
2022-09-09T23:41:23.609Z,15.75
2022-09-09T23:43:53.387Z,13.65
2022-09-09T23:46:28.608Z,16.25
2022-09-09T23:48:57.890Z,13.23
2022-09-09T23:51:28.885Z,13.55
2022-09-09T23:53:58.509Z,15.65
2022-09-09T23:56:29.852Z,14.20
2022-09-09T23:58:56.840Z,16.13
